sensor_id;sensor_type;location;lat;lon;timestamp;temperature;humidity
52209;DHT22;38507;53.132;6.394;2022-08-02T00:01:38;12.50;99.90
52209;DHT22;38507;53.132;6.394;2022-08-02T00:04:04;12.20;99.90
52209;DHT22;38507;53.132;6.394;2022-08-02T00:06:30;12.40;99.90
52209;DHT22;38507;53.132;6.394;2022-08-02T00:08:55;12.10;99.90
52209;DHT22;38507;53.132;6.394;2022-08-02T00:11:21;12.10;99.90
52209;DHT22;38507;53.132;6.394;2022-08-02T00:13:47;12.60;99.90
52209;DHT22;38507;53.132;6.394;2022-08-02T00:16:13;12.20;99.90
52209;DHT22;38507;53.132;6.394;2022-08-02T00:18:39;12.40;99.90
52209;DHT22;38507;53.132;6.394;2022-08-02T00:21:05;12.40;99.90
52209;DHT22;38507;53.132;6.394;2022-08-02T00:23:30;12.10;99.90
52209;DHT22;38507;53.132;6.394;2022-08-02T00:25:56;12.10;99.90
52209;DHT22;38507;53.132;6.394;2022-08-02T00:28:24;12.10;99.90
52209;DHT22;38507;53.132;6.394;2022-08-02T00:30:50;12.10;99.90
52209;DHT22;38507;53.132;6.394;2022-08-02T00:33:15;12.10;99.90
52209;DHT22;38507;53.132;6.394;2022-08-02T00:35:41;12.20;99.90
52209;DHT22;38507;53.132;6.394;2022-08-02T00:38:07;12.00;99.90
52209;DHT22;38507;53.132;6.394;2022-08-02T00:40:32;12.00;99.90
52209;DHT22;38507;53.132;6.394;2022-08-02T00:45:36;12.00;99.90
52209;DHT22;38507;53.132;6.394;2022-08-02T00:48:03;12.00;99.90
52209;DHT22;38507;53.132;6.394;2022-08-02T00:50:29;11.90;99.90
52209;DHT22;38507;53.132;6.394;2022-08-02T00:52:55;11.90;99.90
52209;DHT22;38507;53.132;6.394;2022-08-02T00:55:20;12.20;99.90
52209;DHT22;38507;53.132;6.394;2022-08-02T00:57:47;12.10;99.90
52209;DHT22;38507;53.132;6.394;2022-08-02T01:00:13;12.10;99.90
52209;DHT22;38507;53.132;6.394;2022-08-02T01:02:39;12.00;99.90
52209;DHT22;38507;53.132;6.394;2022-08-02T01:05:05;11.90;99.90
52209;DHT22;38507;53.132;6.394;2022-08-02T01:07:31;11.90;99.90
52209;DHT22;38507;53.132;6.394;2022-08-02T01:09:57;11.90;99.90
52209;DHT22;38507;53.132;6.394;2022-08-02T01:12:22;12.10;99.90
52209;DHT22;38507;53.132;6.394;2022-08-02T01:14:52;11.90;99.90
52209;DHT22;38507;53.132;6.394;2022-08-02T01:26:02;12.00;99.90
52209;DHT22;38507;53.132;6.394;2022-08-02T01:28:38;11.90;99.90
52209;DHT22;38507;53.132;6.394;2022-08-02T01:33:58;11.90;99.90
52209;DHT22;38507;53.132;6.394;2022-08-02T01:36:26;11.90;99.90
52209;DHT22;38507;53.132;6.394;2022-08-02T01:38:56;11.90;99.90
52209;DHT22;38507;53.132;6.394;2022-08-02T01:41:24;11.90;99.90
52209;DHT22;38507;53.132;6.394;2022-08-02T01:43:54;11.90;99.90
52209;DHT22;38507;53.132;6.394;2022-08-02T01:46:21;12.30;99.90
52209;DHT22;38507;53.132;6.394;2022-08-02T01:48:48;11.90;99.90
52209;DHT22;38507;53.132;6.394;2022-08-02T01:51:16;12.00;99.90
52209;DHT22;38507;53.132;6.394;2022-08-02T01:53:44;12.50;99.90
52209;DHT22;38507;53.132;6.394;2022-08-02T01:56:13;12.10;99.90
52209;DHT22;38507;53.132;6.394;2022-08-02T01:58:41;12.00;99.90
52209;DHT22;38507;53.132;6.394;2022-08-02T02:01:09;12.00;99.90
52209;DHT22;38507;53.132;6.394;2022-08-02T02:03:38;12.10;99.90
52209;DHT22;38507;53.132;6.394;2022-08-02T02:06:06;12.00;99.90
52209;DHT22;38507;53.132;6.394;2022-08-02T02:08:37;12.00;99.90
52209;DHT22;38507;53.132;6.394;2022-08-02T02:11:05;12.00;99.90
52209;DHT22;38507;53.132;6.394;2022-08-02T02:13:31;12.00;99.90
52209;DHT22;38507;53.132;6.394;2022-08-02T02:15:59;12.30;99.90
52209;DHT22;38507;53.132;6.394;2022-08-02T02:18:27;12.20;99.90
52209;DHT22;38507;53.132;6.394;2022-08-02T02:20:54;12.00;99.90
52209;DHT22;38507;53.132;6.394;2022-08-02T02:23:20;12.00;99.90
52209;DHT22;38507;53.132;6.394;2022-08-02T02:25:46;12.40;99.90
52209;DHT22;38507;53.132;6.394;2022-08-02T02:28:25;12.00;99.90
52209;DHT22;38507;53.132;6.394;2022-08-02T02:31:02;12.00;99.90
52209;DHT22;38507;53.132;6.394;2022-08-02T02:33:29;12.00;99.90
52209;DHT22;38507;53.132;6.394;2022-08-02T02:35:57;12.00;99.90
52209;DHT22;38507;53.132;6.394;2022-08-02T02:38:27;12.40;99.90
52209;DHT22;38507;53.132;6.394;2022-08-02T02:40:56;12.10;99.90
52209;DHT22;38507;53.132;6.394;2022-08-02T02:43:24;12.00;99.90
52209;DHT22;38507;53.132;6.394;2022-08-02T02:45:53;12.00;99.90
52209;DHT22;38507;53.132;6.394;2022-08-02T02:48:19;12.10;99.90
52209;DHT22;38507;53.132;6.394;2022-08-02T02:50:46;12.10;99.90
52209;DHT22;38507;53.132;6.394;2022-08-02T02:53:12;12.10;99.90
52209;DHT22;38507;53.132;6.394;2022-08-02T02:55:42;12.10;99.90
52209;DHT22;38507;53.132;6.394;2022-08-02T02:58:08;12.10;99.90
52209;DHT22;38507;53.132;6.394;2022-08-02T03:00:34;12.10;99.90
52209;DHT22;38507;53.132;6.394;2022-08-02T03:03:19;12.10;99.90
52209;DHT22;38507;53.132;6.394;2022-08-02T03:05:45;12.50;99.90
52209;DHT22;38507;53.132;6.394;2022-08-02T03:08:11;12.00;99.90
52209;DHT22;38507;53.132;6.394;2022-08-02T03:10:37;12.10;99.90
52209;DHT22;38507;53.132;6.394;2022-08-02T03:13:03;12.00;99.90
52209;DHT22;38507;53.132;6.394;2022-08-02T03:15:30;12.10;99.90
52209;DHT22;38507;53.132;6.394;2022-08-02T03:17:56;12.20;99.90
52209;DHT22;38507;53.132;6.394;2022-08-02T03:20:22;12.40;99.90
52209;DHT22;38507;53.132;6.394;2022-08-02T03:22:47;12.00;99.90
52209;DHT22;38507;53.132;6.394;2022-08-02T03:25:14;12.00;99.90
52209;DHT22;38507;53.132;6.394;2022-08-02T03:27:40;12.10;99.90
52209;DHT22;38507;53.132;6.394;2022-08-02T03:30:08;12.00;99.90
52209;DHT22;38507;53.132;6.394;2022-08-02T03:32:34;12.10;99.90
52209;DHT22;38507;53.132;6.394;2022-08-02T03:35:01;12.10;99.90
52209;DHT22;38507;53.132;6.394;2022-08-02T03:37:30;12.10;99.90
52209;DHT22;38507;53.132;6.394;2022-08-02T03:39:57;12.10;99.90
52209;DHT22;38507;53.132;6.394;2022-08-02T03:42:25;12.50;99.90
52209;DHT22;38507;53.132;6.394;2022-08-02T03:44:52;12.40;99.90
52209;DHT22;38507;53.132;6.394;2022-08-02T03:47:18;12.10;99.90
52209;DHT22;38507;53.132;6.394;2022-08-02T03:49:44;12.20;99.90
52209;DHT22;38507;53.132;6.394;2022-08-02T03:52:10;12.10;99.90
52209;DHT22;38507;53.132;6.394;2022-08-02T03:54:36;12.50;99.90
52209;DHT22;38507;53.132;6.394;2022-08-02T03:57:05;12.10;99.90
52209;DHT22;38507;53.132;6.394;2022-08-02T03:59:40;12.20;99.90
52209;DHT22;38507;53.132;6.394;2022-08-02T04:02:06;12.10;99.90
52209;DHT22;38507;53.132;6.394;2022-08-02T04:04:31;12.10;99.90
52209;DHT22;38507;53.132;6.394;2022-08-02T04:06:57;12.60;99.90
52209;DHT22;38507;53.132;6.394;2022-08-02T04:09:23;12.10;99.90
52209;DHT22;38507;53.132;6.394;2022-08-02T04:11:48;12.20;99.90
52209;DHT22;38507;53.132;6.394;2022-08-02T04:14:14;12.60;99.90
52209;DHT22;38507;53.132;6.394;2022-08-02T04:16:42;12.20;99.90
52209;DHT22;38507;53.132;6.394;2022-08-02T04:19:12;12.30;99.90
52209;DHT22;38507;53.132;6.394;2022-08-02T04:21:41;12.50;99.90
52209;DHT22;38507;53.132;6.394;2022-08-02T04:24:09;12.20;99.90
52209;DHT22;38507;53.132;6.394;2022-08-02T04:26:36;12.20;99.90
52209;DHT22;38507;53.132;6.394;2022-08-02T04:29:03;12.20;99.90
52209;DHT22;38507;53.132;6.394;2022-08-02T04:31:29;12.20;99.90
52209;DHT22;38507;53.132;6.394;2022-08-02T04:33:55;12.70;99.90
52209;DHT22;38507;53.132;6.394;2022-08-02T04:36:24;12.30;99.90
52209;DHT22;38507;53.132;6.394;2022-08-02T04:38:50;12.30;99.90
52209;DHT22;38507;53.132;6.394;2022-08-02T04:41:18;12.30;99.90
52209;DHT22;38507;53.132;6.394;2022-08-02T04:43:43;12.80;99.90
52209;DHT22;38507;53.132;6.394;2022-08-02T04:46:09;12.30;99.90
52209;DHT22;38507;53.132;6.394;2022-08-02T04:48:35;12.40;99.90
52209;DHT22;38507;53.132;6.394;2022-08-02T04:51:00;12.40;99.90
52209;DHT22;38507;53.132;6.394;2022-08-02T04:53:26;12.40;99.90
52209;DHT22;38507;53.132;6.394;2022-08-02T04:55:52;12.50;99.90
52209;DHT22;38507;53.132;6.394;2022-08-02T04:58:17;12.50;99.90
52209;DHT22;38507;53.132;6.394;2022-08-02T05:00:43;12.80;99.90
52209;DHT22;38507;53.132;6.394;2022-08-02T05:03:08;12.90;99.90
52209;DHT22;38507;53.132;6.394;2022-08-02T05:05:34;12.60;99.90
52209;DHT22;38507;53.132;6.394;2022-08-02T05:08:00;12.70;99.90
52209;DHT22;38507;53.132;6.394;2022-08-02T05:10:26;12.70;99.90
52209;DHT22;38507;53.132;6.394;2022-08-02T05:12:52;12.90;99.90
52209;DHT22;38507;53.132;6.394;2022-08-02T05:15:17;12.70;99.90
52209;DHT22;38507;53.132;6.394;2022-08-02T05:17:44;13.00;99.90
52209;DHT22;38507;53.132;6.394;2022-08-02T05:20:11;13.20;99.90
52209;DHT22;38507;53.132;6.394;2022-08-02T05:22:41;13.10;99.90
52209;DHT22;38507;53.132;6.394;2022-08-02T05:25:07;13.10;99.90
52209;DHT22;38507;53.132;6.394;2022-08-02T05:27:33;13.20;99.90
52209;DHT22;38507;53.132;6.394;2022-08-02T05:30:00;13.30;99.90
52209;DHT22;38507;53.132;6.394;2022-08-02T05:32:26;13.40;99.90
52209;DHT22;38507;53.132;6.394;2022-08-02T05:34:52;13.60;99.90
52209;DHT22;38507;53.132;6.394;2022-08-02T05:37:17;13.60;99.90
52209;DHT22;38507;53.132;6.394;2022-08-02T05:39:43;13.70;99.90
52209;DHT22;38507;53.132;6.394;2022-08-02T05:42:09;13.80;99.90
52209;DHT22;38507;53.132;6.394;2022-08-02T05:44:36;14.20;99.90
52209;DHT22;38507;53.132;6.394;2022-08-02T05:47:01;14.00;99.90
52209;DHT22;38507;53.132;6.394;2022-08-02T05:49:27;14.10;99.90
52209;DHT22;38507;53.132;6.394;2022-08-02T05:52:17;14.50;99.90
52209;DHT22;38507;53.132;6.394;2022-08-02T05:54:56;14.30;99.90
52209;DHT22;38507;53.132;6.394;2022-08-02T06:00:33;14.60;99.90
52209;DHT22;38507;53.132;6.394;2022-08-02T06:05:35;14.80;99.90
52209;DHT22;38507;53.132;6.394;2022-08-02T06:08:06;15.00;99.90
52209;DHT22;38507;53.132;6.394;2022-08-02T06:10:36;15.00;99.90
52209;DHT22;38507;53.132;6.394;2022-08-02T06:13:13;15.20;99.90
52209;DHT22;38507;53.132;6.394;2022-08-02T06:15:42;15.60;99.90
52209;DHT22;38507;53.132;6.394;2022-08-02T06:18:08;15.50;99.90
52209;DHT22;38507;53.132;6.394;2022-08-02T06:20:35;15.60;99.90
52209;DHT22;38507;53.132;6.394;2022-08-02T06:25:28;16.10;99.90
52209;DHT22;38507;53.132;6.394;2022-08-02T06:28:01;16.10;99.90
52209;DHT22;38507;53.132;6.394;2022-08-02T06:30:28;16.10;99.90
52209;DHT22;38507;53.132;6.394;2022-08-02T06:32:56;16.30;99.90
52209;DHT22;38507;53.132;6.394;2022-08-02T06:35:40;16.40;99.90
52209;DHT22;38507;53.132;6.394;2022-08-02T06:38:09;16.50;99.90
52209;DHT22;38507;53.132;6.394;2022-08-02T06:40:46;16.70;99.90
52209;DHT22;38507;53.132;6.394;2022-08-02T06:43:52;16.70;99.90
52209;DHT22;38507;53.132;6.394;2022-08-02T06:46:19;16.80;99.90
52209;DHT22;38507;53.132;6.394;2022-08-02T06:48:45;16.90;99.90
52209;DHT22;38507;53.132;6.394;2022-08-02T06:51:11;17.10;99.90
52209;DHT22;38507;53.132;6.394;2022-08-02T06:53:37;17.20;99.90
52209;DHT22;38507;53.132;6.394;2022-08-02T06:56:03;17.20;99.90
52209;DHT22;38507;53.132;6.394;2022-08-02T06:58:29;17.30;99.90
52209;DHT22;38507;53.132;6.394;2022-08-02T07:00:55;17.40;99.90
52209;DHT22;38507;53.132;6.394;2022-08-02T07:03:21;17.60;99.90
52209;DHT22;38507;53.132;6.394;2022-08-02T07:05:50;17.70;99.90
52209;DHT22;38507;53.132;6.394;2022-08-02T07:08:17;18.00;99.90
52209;DHT22;38507;53.132;6.394;2022-08-02T07:10:46;18.20;99.90
52209;DHT22;38507;53.132;6.394;2022-08-02T07:13:11;18.30;99.90
52209;DHT22;38507;53.132;6.394;2022-08-02T07:15:38;18.40;99.90
52209;DHT22;38507;53.132;6.394;2022-08-02T07:18:04;18.60;99.90
52209;DHT22;38507;53.132;6.394;2022-08-02T07:20:31;18.70;99.90
52209;DHT22;38507;53.132;6.394;2022-08-02T07:22:56;18.70;99.90
52209;DHT22;38507;53.132;6.394;2022-08-02T07:25:22;18.70;99.90
52209;DHT22;38507;53.132;6.394;2022-08-02T07:27:48;18.80;99.90
52209;DHT22;38507;53.132;6.394;2022-08-02T07:30:13;18.90;99.90
52209;DHT22;38507;53.132;6.394;2022-08-02T07:32:39;19.00;99.90
52209;DHT22;38507;53.132;6.394;2022-08-02T07:35:06;19.10;99.90
52209;DHT22;38507;53.132;6.394;2022-08-02T07:37:33;19.30;99.90
52209;DHT22;38507;53.132;6.394;2022-08-02T07:39:59;19.50;99.90
52209;DHT22;38507;53.132;6.394;2022-08-02T07:42:25;19.60;99.90
52209;DHT22;38507;53.132;6.394;2022-08-02T07:44:53;19.70;99.90
52209;DHT22;38507;53.132;6.394;2022-08-02T07:47:18;19.80;99.90
52209;DHT22;38507;53.132;6.394;2022-08-02T07:49:44;20.00;99.90
52209;DHT22;38507;53.132;6.394;2022-08-02T07:52:10;20.10;99.90
52209;DHT22;38507;53.132;6.394;2022-08-02T07:54:36;20.30;99.90
52209;DHT22;38507;53.132;6.394;2022-08-02T07:57:02;20.50;99.90
52209;DHT22;38507;53.132;6.394;2022-08-02T07:59:27;20.70;99.90
52209;DHT22;38507;53.132;6.394;2022-08-02T08:01:54;20.80;99.90
52209;DHT22;38507;53.132;6.394;2022-08-02T08:04:20;21.10;99.90
52209;DHT22;38507;53.132;6.394;2022-08-02T08:06:46;21.30;99.90
52209;DHT22;38507;53.132;6.394;2022-08-02T08:09:16;21.30;99.90
52209;DHT22;38507;53.132;6.394;2022-08-02T08:11:42;21.40;99.90
52209;DHT22;38507;53.132;6.394;2022-08-02T08:14:08;21.60;99.90
52209;DHT22;38507;53.132;6.394;2022-08-02T08:16:34;21.80;99.90
52209;DHT22;38507;53.132;6.394;2022-08-02T08:19:00;21.90;99.90
52209;DHT22;38507;53.132;6.394;2022-08-02T08:21:27;22.00;99.90
52209;DHT22;38507;53.132;6.394;2022-08-02T08:23:54;22.10;99.90
52209;DHT22;38507;53.132;6.394;2022-08-02T08:26:20;22.30;99.90
52209;DHT22;38507;53.132;6.394;2022-08-02T08:28:46;22.10;99.90
52209;DHT22;38507;53.132;6.394;2022-08-02T08:31:11;22.30;99.90
52209;DHT22;38507;53.132;6.394;2022-08-02T08:33:37;22.40;99.90
52209;DHT22;38507;53.132;6.394;2022-08-02T08:36:03;22.40;99.90
52209;DHT22;38507;53.132;6.394;2022-08-02T08:38:29;22.50;99.90
52209;DHT22;38507;53.132;6.394;2022-08-02T08:40:54;22.60;99.90
52209;DHT22;38507;53.132;6.394;2022-08-02T08:43:20;22.80;99.90
52209;DHT22;38507;53.132;6.394;2022-08-02T08:45:47;22.90;99.90
52209;DHT22;38507;53.132;6.394;2022-08-02T08:48:16;23.00;99.90
52209;DHT22;38507;53.132;6.394;2022-08-02T08:51:03;23.10;99.90
52209;DHT22;38507;53.132;6.394;2022-08-02T08:53:30;23.30;99.80
52209;DHT22;38507;53.132;6.394;2022-08-02T08:56:01;23.40;99.90
52209;DHT22;38507;53.132;6.394;2022-08-02T08:58:26;23.50;99.90
52209;DHT22;38507;53.132;6.394;2022-08-02T09:00:52;23.80;99.90
52209;DHT22;38507;53.132;6.394;2022-08-02T09:03:19;23.80;99.90
52209;DHT22;38507;53.132;6.394;2022-08-02T09:05:44;23.80;99.60
52209;DHT22;38507;53.132;6.394;2022-08-02T09:08:11;23.90;99.00
52209;DHT22;38507;53.132;6.394;2022-08-02T09:10:41;24.00;99.20
52209;DHT22;38507;53.132;6.394;2022-08-02T09:13:17;24.10;98.40
52209;DHT22;38507;53.132;6.394;2022-08-02T09:16:01;24.20;99.20
52209;DHT22;38507;53.132;6.394;2022-08-02T09:18:38;24.30;98.20
52209;DHT22;38507;53.132;6.394;2022-08-02T09:21:06;24.50;98.30
52209;DHT22;38507;53.132;6.394;2022-08-02T09:23:37;24.60;98.70
52209;DHT22;38507;53.132;6.394;2022-08-02T09:26:05;24.70;98.20
52209;DHT22;38507;53.132;6.394;2022-08-02T09:28:36;24.80;98.20
52209;DHT22;38507;53.132;6.394;2022-08-02T09:31:07;24.80;98.30
52209;DHT22;38507;53.132;6.394;2022-08-02T09:33:34;25.00;98.10
52209;DHT22;38507;53.132;6.394;2022-08-02T09:36:03;25.10;97.60
52209;DHT22;38507;53.132;6.394;2022-08-02T09:38:30;25.20;97.90
52209;DHT22;38507;53.132;6.394;2022-08-02T09:40:56;25.30;97.70
52209;DHT22;38507;53.132;6.394;2022-08-02T09:43:40;25.30;97.60
52209;DHT22;38507;53.132;6.394;2022-08-02T09:46:21;25.30;97.10
52209;DHT22;38507;53.132;6.394;2022-08-02T09:48:58;25.40;96.80
52209;DHT22;38507;53.132;6.394;2022-08-02T09:51:25;25.40;97.10
52209;DHT22;38507;53.132;6.394;2022-08-02T09:53:53;25.50;97.70
52209;DHT22;38507;53.132;6.394;2022-08-02T09:56:24;25.50;96.90
52209;DHT22;38507;53.132;6.394;2022-08-02T09:58:50;25.60;97.10
52209;DHT22;38507;53.132;6.394;2022-08-02T10:01:18;25.60;97.10
52209;DHT22;38507;53.132;6.394;2022-08-02T10:03:59;25.60;97.20
52209;DHT22;38507;53.132;6.394;2022-08-02T10:06:52;25.90;97.70
52209;DHT22;38507;53.132;6.394;2022-08-02T10:09:18;26.10;97.90
52209;DHT22;38507;53.132;6.394;2022-08-02T10:11:44;26.10;97.20
52209;DHT22;38507;53.132;6.394;2022-08-02T10:14:10;26.10;97.70
52209;DHT22;38507;53.132;6.394;2022-08-02T10:16:38;26.20;97.20
52209;DHT22;38507;53.132;6.394;2022-08-02T10:19:04;26.20;97.30
52209;DHT22;38507;53.132;6.394;2022-08-02T10:24:09;26.30;97.70
52209;DHT22;38507;53.132;6.394;2022-08-02T10:26:39;26.50;97.80
52209;DHT22;38507;53.132;6.394;2022-08-02T10:29:09;26.50;97.90
52209;DHT22;38507;53.132;6.394;2022-08-02T10:31:46;26.70;98.10
52209;DHT22;38507;53.132;6.394;2022-08-02T10:34:17;26.70;97.80
52209;DHT22;38507;53.132;6.394;2022-08-02T10:36:43;26.70;98.00
52209;DHT22;38507;53.132;6.394;2022-08-02T10:39:09;26.50;97.80
52209;DHT22;38507;53.132;6.394;2022-08-02T10:41:53;26.50;97.90
52209;DHT22;38507;53.132;6.394;2022-08-02T10:46:49;26.40;98.10
52209;DHT22;38507;53.132;6.394;2022-08-02T10:49:19;26.40;97.90
52209;DHT22;38507;53.132;6.394;2022-08-02T10:51:55;26.50;97.50
52209;DHT22;38507;53.132;6.394;2022-08-02T10:54:25;26.50;97.90
52209;DHT22;38507;53.132;6.394;2022-08-02T10:56:53;26.60;97.60
52209;DHT22;38507;53.132;6.394;2022-08-02T10:59:36;26.50;97.50
52209;DHT22;38507;53.132;6.394;2022-08-02T11:02:05;26.50;97.20
52209;DHT22;38507;53.132;6.394;2022-08-02T11:07:11;26.20;97.20
52209;DHT22;38507;53.132;6.394;2022-08-02T11:09:40;26.10;97.60
52209;DHT22;38507;53.132;6.394;2022-08-02T11:12:14;26.10;97.60
52209;DHT22;38507;53.132;6.394;2022-08-02T11:14:45;26.10;97.80
52209;DHT22;38507;53.132;6.394;2022-08-02T11:17:18;26.10;98.10
52209;DHT22;38507;53.132;6.394;2022-08-02T11:22:38;26.20;98.20
52209;DHT22;38507;53.132;6.394;2022-08-02T11:27:51;26.60;97.80
52209;DHT22;38507;53.132;6.394;2022-08-02T11:30:18;26.60;97.20
52209;DHT22;38507;53.132;6.394;2022-08-02T11:32:44;26.60;97.80
52209;DHT22;38507;53.132;6.394;2022-08-02T11:35:10;26.70;98.00
52209;DHT22;38507;53.132;6.394;2022-08-02T11:37:42;26.70;98.00
52209;DHT22;38507;53.132;6.394;2022-08-02T11:40:14;26.70;98.10
52209;DHT22;38507;53.132;6.394;2022-08-02T11:42:42;26.60;98.30
52209;DHT22;38507;53.132;6.394;2022-08-02T11:45:10;26.90;98.60
52209;DHT22;38507;53.132;6.394;2022-08-02T11:47:49;27.00;98.70
52209;DHT22;38507;53.132;6.394;2022-08-02T11:50:16;27.10;98.80
52209;DHT22;38507;53.132;6.394;2022-08-02T11:52:42;27.40;98.70
52209;DHT22;38507;53.132;6.394;2022-08-02T11:55:09;27.40;98.70
52209;DHT22;38507;53.132;6.394;2022-08-02T11:57:35;27.40;98.30
52209;DHT22;38507;53.132;6.394;2022-08-02T12:00:02;27.30;98.30
52209;DHT22;38507;53.132;6.394;2022-08-02T12:02:30;27.30;98.50
52209;DHT22;38507;53.132;6.394;2022-08-02T12:05:02;27.40;98.70
52209;DHT22;38507;53.132;6.394;2022-08-02T12:07:33;27.40;98.50
52209;DHT22;38507;53.132;6.394;2022-08-02T12:10:00;27.20;98.50
52209;DHT22;38507;53.132;6.394;2022-08-02T12:12:26;27.10;98.80
52209;DHT22;38507;53.132;6.394;2022-08-02T12:14:51;27.10;98.90
52209;DHT22;38507;53.132;6.394;2022-08-02T12:17:29;26.90;99.00
52209;DHT22;38507;53.132;6.394;2022-08-02T12:20:13;26.80;99.00
52209;DHT22;38507;53.132;6.394;2022-08-02T12:22:39;26.70;99.00
52209;DHT22;38507;53.132;6.394;2022-08-02T12:25:16;26.60;98.80
52209;DHT22;38507;53.132;6.394;2022-08-02T12:27:43;26.50;99.00
52209;DHT22;38507;53.132;6.394;2022-08-02T12:30:11;26.60;99.20
52209;DHT22;38507;53.132;6.394;2022-08-02T12:32:38;26.60;98.80
52209;DHT22;38507;53.132;6.394;2022-08-02T12:37:33;26.40;99.00
52209;DHT22;38507;53.132;6.394;2022-08-02T12:40:17;26.30;99.30
52209;DHT22;38507;53.132;6.394;2022-08-02T12:42:51;26.30;99.50
52209;DHT22;38507;53.132;6.394;2022-08-02T12:45:17;26.10;99.50
52209;DHT22;38507;53.132;6.394;2022-08-02T12:47:49;26.00;99.90
52209;DHT22;38507;53.132;6.394;2022-08-02T12:50:20;25.90;99.90
52209;DHT22;38507;53.132;6.394;2022-08-02T12:52:47;25.80;99.90
52209;DHT22;38507;53.132;6.394;2022-08-02T12:55:17;25.80;99.90
52209;DHT22;38507;53.132;6.394;2022-08-02T12:57:57;25.80;99.90
52209;DHT22;38507;53.132;6.394;2022-08-02T13:00:28;25.70;99.90
52209;DHT22;38507;53.132;6.394;2022-08-02T13:02:55;25.70;99.90
52209;DHT22;38507;53.132;6.394;2022-08-02T13:05:21;25.70;99.90
52209;DHT22;38507;53.132;6.394;2022-08-02T13:07:47;25.80;99.90
52209;DHT22;38507;53.132;6.394;2022-08-02T13:10:13;25.80;99.90
52209;DHT22;38507;53.132;6.394;2022-08-02T13:12:39;25.90;99.90
52209;DHT22;38507;53.132;6.394;2022-08-02T13:15:06;25.80;99.90
52209;DHT22;38507;53.132;6.394;2022-08-02T13:17:32;25.80;99.90
52209;DHT22;38507;53.132;6.394;2022-08-02T13:19:58;25.70;99.90
52209;DHT22;38507;53.132;6.394;2022-08-02T13:22:24;25.60;99.90
52209;DHT22;38507;53.132;6.394;2022-08-02T13:24:49;25.70;99.90
52209;DHT22;38507;53.132;6.394;2022-08-02T13:27:16;25.70;99.90
52209;DHT22;38507;53.132;6.394;2022-08-02T13:29:42;25.60;99.80
52209;DHT22;38507;53.132;6.394;2022-08-02T13:32:08;25.60;99.70
52209;DHT22;38507;53.132;6.394;2022-08-02T13:34:34;25.60;99.90
52209;DHT22;38507;53.132;6.394;2022-08-02T13:37:00;25.50;99.90
52209;DHT22;38507;53.132;6.394;2022-08-02T13:39:25;25.40;99.90
52209;DHT22;38507;53.132;6.394;2022-08-02T13:41:51;25.40;99.90
52209;DHT22;38507;53.132;6.394;2022-08-02T13:44:17;25.30;99.90
52209;DHT22;38507;53.132;6.394;2022-08-02T13:46:46;25.40;99.90
52209;DHT22;38507;53.132;6.394;2022-08-02T13:49:13;25.50;99.90
52209;DHT22;38507;53.132;6.394;2022-08-02T13:51:38;25.50;99.90
52209;DHT22;38507;53.132;6.394;2022-08-02T13:54:04;25.40;99.90
52209;DHT22;38507;53.132;6.394;2022-08-02T13:56:30;25.40;99.90
52209;DHT22;38507;53.132;6.394;2022-08-02T13:58:56;25.30;99.90
52209;DHT22;38507;53.132;6.394;2022-08-02T14:01:27;25.30;99.90
52209;DHT22;38507;53.132;6.394;2022-08-02T14:03:52;25.30;99.90
52209;DHT22;38507;53.132;6.394;2022-08-02T14:06:21;25.30;99.90
52209;DHT22;38507;53.132;6.394;2022-08-02T14:08:47;25.30;99.90
52209;DHT22;38507;53.132;6.394;2022-08-02T14:11:13;25.20;99.90
52209;DHT22;38507;53.132;6.394;2022-08-02T14:13:39;25.20;99.90
52209;DHT22;38507;53.132;6.394;2022-08-02T14:16:05;25.30;99.90
52209;DHT22;38507;53.132;6.394;2022-08-02T14:18:30;25.20;99.90
52209;DHT22;38507;53.132;6.394;2022-08-02T14:20:56;25.20;99.90
52209;DHT22;38507;53.132;6.394;2022-08-02T14:23:22;25.20;99.90
52209;DHT22;38507;53.132;6.394;2022-08-02T14:25:47;25.30;99.90
52209;DHT22;38507;53.132;6.394;2022-08-02T14:28:13;25.30;99.90
52209;DHT22;38507;53.132;6.394;2022-08-02T14:30:39;25.20;99.90
52209;DHT22;38507;53.132;6.394;2022-08-02T14:33:05;25.20;99.90
52209;DHT22;38507;53.132;6.394;2022-08-02T14:35:30;25.20;99.90
52209;DHT22;38507;53.132;6.394;2022-08-02T14:37:56;25.20;99.90
52209;DHT22;38507;53.132;6.394;2022-08-02T14:40:22;25.10;99.90
52209;DHT22;38507;53.132;6.394;2022-08-02T14:42:48;25.20;99.90
52209;DHT22;38507;53.132;6.394;2022-08-02T14:45:16;25.20;99.90
52209;DHT22;38507;53.132;6.394;2022-08-02T14:47:46;25.20;99.90
52209;DHT22;38507;53.132;6.394;2022-08-02T14:50:11;25.30;99.90
52209;DHT22;38507;53.132;6.394;2022-08-02T14:52:38;25.40;99.90
52209;DHT22;38507;53.132;6.394;2022-08-02T14:55:04;25.70;99.90
52209;DHT22;38507;53.132;6.394;2022-08-02T14:57:31;25.90;99.90
52209;DHT22;38507;53.132;6.394;2022-08-02T14:59:57;25.90;99.90
52209;DHT22;38507;53.132;6.394;2022-08-02T15:02:26;26.10;99.90
52209;DHT22;38507;53.132;6.394;2022-08-02T15:04:51;26.20;99.90
52209;DHT22;38507;53.132;6.394;2022-08-02T15:07:17;26.30;99.60
52209;DHT22;38507;53.132;6.394;2022-08-02T15:09:42;26.30;99.10
52209;DHT22;38507;53.132;6.394;2022-08-02T15:12:10;26.30;99.20
52209;DHT22;38507;53.132;6.394;2022-08-02T15:14:37;26.40;99.10
52209;DHT22;38507;53.132;6.394;2022-08-02T15:17:03;26.50;99.20
52209;DHT22;38507;53.132;6.394;2022-08-02T15:19:29;26.50;99.10
52209;DHT22;38507;53.132;6.394;2022-08-02T15:21:55;26.70;99.20
52209;DHT22;38507;53.132;6.394;2022-08-02T15:24:21;27.00;99.20
52209;DHT22;38507;53.132;6.394;2022-08-02T15:26:46;27.10;98.80
52209;DHT22;38507;53.132;6.394;2022-08-02T15:29:14;27.10;98.70
52209;DHT22;38507;53.132;6.394;2022-08-02T15:31:40;27.20;98.90
52209;DHT22;38507;53.132;6.394;2022-08-02T15:34:06;27.30;98.60
52209;DHT22;38507;53.132;6.394;2022-08-02T15:36:31;27.30;98.50
52209;DHT22;38507;53.132;6.394;2022-08-02T15:38:57;27.50;98.30
52209;DHT22;38507;53.132;6.394;2022-08-02T15:41:23;27.50;98.40
52209;DHT22;38507;53.132;6.394;2022-08-02T15:43:49;27.60;98.60
52209;DHT22;38507;53.132;6.394;2022-08-02T15:46:14;27.70;98.10
52209;DHT22;38507;53.132;6.394;2022-08-02T15:48:40;27.70;98.40
52209;DHT22;38507;53.132;6.394;2022-08-02T15:51:05;27.70;98.70
52209;DHT22;38507;53.132;6.394;2022-08-02T15:53:31;27.80;98.10
52209;DHT22;38507;53.132;6.394;2022-08-02T15:55:56;27.90;98.00
52209;DHT22;38507;53.132;6.394;2022-08-02T15:58:22;27.90;97.80
52209;DHT22;38507;53.132;6.394;2022-08-02T16:00:48;27.90;97.50
52209;DHT22;38507;53.132;6.394;2022-08-02T16:03:14;27.90;97.10
52209;DHT22;38507;53.132;6.394;2022-08-02T16:05:39;27.90;97.00
52209;DHT22;38507;53.132;6.394;2022-08-02T16:08:05;27.90;97.00
52209;DHT22;38507;53.132;6.394;2022-08-02T16:10:31;27.90;97.10
52209;DHT22;38507;53.132;6.394;2022-08-02T16:12:57;27.90;96.60